createdAt,value
2018-10-06T00:01:02.205Z,3.53
2018-10-06T00:03:31.278Z,4.00
2018-10-06T00:06:00.546Z,4.03
2018-10-06T00:08:29.801Z,5.17
2018-10-06T00:10:59.884Z,4.83
2018-10-06T00:13:29.061Z,5.13
2018-10-06T00:18:42.713Z,4.80
2018-10-06T00:21:11.809Z,5.07
2018-10-06T00:23:40.933Z,5.60
2018-10-06T00:26:10.133Z,5.27
2018-10-06T00:28:39.393Z,5.83
2018-10-06T00:31:08.689Z,5.80
2018-10-06T00:33:38.296Z,5.07
2018-10-06T00:36:07.530Z,5.07
2018-10-06T00:38:36.923Z,5.70
2018-10-06T00:41:06.091Z,6.57
2018-10-06T00:43:35.293Z,5.33
2018-10-06T00:46:04.597Z,5.87
2018-10-06T00:48:34.030Z,5.93
2018-10-06T00:51:03.329Z,5.80
2018-10-06T00:53:32.413Z,5.53
2018-10-06T00:56:01.998Z,6.00
2018-10-06T00:58:31.105Z,5.80
2018-10-06T01:01:00.402Z,5.80
2018-10-06T01:03:29.573Z,5.93
2018-10-06T01:05:58.891Z,5.53
2018-10-06T01:08:28.409Z,5.90
2018-10-06T01:10:57.819Z,5.50
2018-10-06T01:13:27.109Z,5.97
2018-10-06T01:15:56.445Z,5.23
2018-10-06T01:18:25.733Z,5.73
2018-10-06T01:20:54.918Z,7.00
2018-10-06T01:23:24.011Z,6.90
2018-10-06T01:25:53.251Z,7.77
2018-10-06T01:28:22.301Z,8.33
2018-10-06T01:30:51.518Z,7.10
2018-10-06T01:33:20.661Z,7.07
2018-10-06T01:35:49.793Z,7.77
2018-10-06T01:38:18.992Z,6.70
2018-10-06T01:40:48.585Z,6.93
2018-10-06T01:43:17.774Z,6.57
2018-10-06T01:45:47.181Z,5.87
2018-10-06T01:48:16.465Z,6.10
2018-10-06T01:50:45.389Z,6.20
2018-10-06T01:53:14.609Z,6.20
2018-10-06T01:55:43.833Z,6.70
2018-10-06T01:58:12.965Z,7.13
2018-10-06T02:00:42.089Z,7.57
2018-10-06T02:03:11.451Z,8.07
2018-10-06T02:05:40.754Z,8.60
2018-10-06T02:08:10.062Z,8.03
2018-10-06T02:10:39.419Z,8.03
2018-10-06T02:13:08.483Z,8.60
2018-10-06T02:15:37.669Z,8.87
2018-10-06T02:18:07.121Z,8.57
2018-10-06T02:20:36.365Z,7.63
2018-10-06T02:23:05.669Z,7.57
2018-10-06T02:25:35.246Z,6.40
2018-10-06T02:28:04.486Z,6.33
2018-10-06T02:30:33.585Z,6.00
2018-10-06T02:33:02.926Z,6.37
2018-10-06T02:35:32.081Z,6.40
2018-10-06T02:38:01.158Z,6.20
2018-10-06T02:40:30.613Z,7.10
2018-10-06T02:42:59.949Z,6.77
2018-10-06T02:45:29.073Z,6.73
2018-10-06T02:47:58.340Z,7.10
2018-10-06T02:50:27.661Z,6.77
2018-10-06T02:52:56.757Z,7.57
2018-10-06T02:55:26.113Z,6.87
2018-10-06T02:57:55.257Z,6.97
2018-10-06T03:00:24.261Z,7.20
2018-10-06T03:02:53.495Z,7.23
2018-10-06T03:05:22.757Z,7.07
2018-10-06T03:07:51.984Z,7.23
2018-10-06T03:10:21.771Z,7.77
2018-10-06T03:12:50.957Z,7.63
2018-10-06T03:15:20.049Z,7.23
2018-10-06T03:17:49.237Z,6.97
2018-10-06T03:20:18.442Z,7.00
2018-10-06T03:22:47.534Z,6.97
2018-10-06T03:25:17.161Z,6.90
2018-10-06T03:27:46.355Z,7.37
2018-10-06T03:30:15.642Z,6.60
2018-10-06T03:32:44.997Z,6.53
2018-10-06T03:35:14.146Z,6.47
2018-10-06T03:37:43.353Z,7.27
2018-10-06T03:40:12.642Z,7.17
2018-10-06T03:42:41.849Z,7.33
2018-10-06T03:45:10.965Z,6.93
2018-10-06T03:47:40.379Z,7.50
2018-10-06T03:50:09.633Z,7.53
2018-10-06T03:52:38.856Z,7.63
2018-10-06T03:55:08.390Z,6.97
2018-10-06T03:57:37.654Z,7.53
2018-10-06T04:00:07.530Z,7.83
2018-10-06T04:02:37.193Z,9.33
2018-10-06T04:05:06.350Z,7.80
2018-10-06T04:07:35.542Z,8.67
2018-10-06T04:10:05.070Z,9.73
2018-10-06T04:12:34.270Z,10.07
2018-10-06T04:15:03.493Z,9.10
2018-10-06T04:17:32.843Z,8.37
2018-10-06T04:20:02.073Z,9.93
2018-10-06T04:22:31.250Z,10.20
2018-10-06T04:25:00.866Z,10.67
2018-10-06T04:27:30.051Z,10.60
2018-10-06T04:29:59.265Z,12.83
2018-10-06T04:32:28.485Z,13.47
2018-10-06T04:34:57.566Z,9.83
2018-10-06T04:37:26.651Z,10.53
2018-10-06T04:39:55.986Z,10.10
2018-10-06T04:42:25.347Z,11.23
2018-10-06T04:44:54.565Z,9.67
2018-10-06T04:47:23.873Z,9.13
2018-10-06T04:49:53.198Z,11.77
2018-10-06T04:52:22.461Z,11.17
2018-10-06T04:54:51.958Z,19.47
2018-10-06T04:57:21.149Z,15.30
2018-10-06T04:59:50.465Z,15.33
2018-10-06T05:02:19.702Z,15.13
2018-10-06T05:04:49.065Z,15.40
2018-10-06T05:07:18.341Z,13.87
2018-10-06T05:09:47.853Z,12.30
2018-10-06T05:12:17.184Z,10.27
2018-10-06T05:14:46.277Z,13.37
2018-10-06T05:17:15.321Z,13.70
2018-10-06T05:19:44.462Z,12.47
2018-10-06T05:22:13.547Z,10.57
2018-10-06T05:24:42.870Z,10.67
2018-10-06T05:27:12.154Z,10.03
2018-10-06T05:29:41.426Z,9.77
2018-10-06T05:32:10.682Z,21.80
2018-10-06T05:34:39.879Z,21.40
2018-10-06T05:37:09.165Z,21.37
2018-10-06T05:39:38.284Z,21.87
2018-10-06T05:42:07.732Z,25.50
2018-10-06T05:44:36.891Z,26.13
2018-10-06T05:47:06.545Z,23.13
2018-10-06T05:49:35.756Z,19.90
2018-10-06T05:52:05.037Z,18.23
2018-10-06T05:54:34.655Z,12.27
2018-10-06T05:57:04.156Z,8.73
2018-10-06T05:59:33.245Z,7.57
2018-10-06T06:02:02.603Z,7.30
2018-10-06T06:04:31.835Z,7.37
2018-10-06T06:07:01.792Z,6.03
2018-10-06T06:09:31.555Z,6.03
2018-10-06T06:12:02.566Z,5.93
2018-10-06T06:14:32.324Z,5.60
2018-10-06T06:17:01.417Z,5.77
2018-10-06T06:19:30.730Z,5.27
2018-10-06T06:22:00.238Z,5.80
2018-10-06T06:24:29.545Z,5.70
2018-10-06T06:26:58.746Z,5.80
2018-10-06T06:29:28.360Z,6.70
2018-10-06T06:31:57.589Z,5.73
2018-10-06T06:34:26.763Z,5.97
2018-10-06T06:36:55.905Z,5.83
2018-10-06T06:39:25.069Z,5.53
2018-10-06T06:41:54.246Z,5.00
2018-10-06T06:44:23.479Z,7.97
2018-10-06T06:46:52.772Z,5.27
2018-10-06T06:49:22.044Z,5.13
2018-10-06T06:51:51.393Z,5.30
2018-10-06T06:54:20.653Z,5.10
2018-10-06T06:56:49.869Z,6.40
2018-10-06T06:59:19.476Z,5.33
2018-10-06T07:01:48.781Z,5.20
2018-10-06T07:04:18.068Z,4.20
2018-10-06T07:06:47.193Z,4.67
2018-10-06T07:09:16.251Z,3.80
2018-10-06T07:11:45.551Z,4.53
2018-10-06T07:14:14.981Z,3.60
2018-10-06T07:16:44.530Z,3.70
2018-10-06T07:19:13.777Z,3.60
2018-10-06T07:21:43.577Z,3.63
2018-10-06T07:24:12.884Z,4.37
2018-10-06T07:26:42.174Z,4.00
2018-10-06T07:29:12.005Z,3.67
2018-10-06T07:31:42.029Z,3.53
2018-10-06T07:34:16.456Z,3.80
2018-10-06T07:36:45.745Z,3.70
2018-10-06T07:39:14.837Z,3.67
2018-10-06T07:41:44.091Z,5.60
2018-10-06T07:44:13.213Z,7.70
2018-10-06T07:46:42.328Z,19.77
2018-10-06T07:49:11.587Z,21.67
2018-10-06T07:51:40.917Z,27.27
2018-10-06T07:54:10.186Z,6.27
2018-10-06T07:56:39.739Z,8.20
2018-10-06T07:59:09.052Z,5.73
2018-10-06T08:01:38.315Z,3.20
2018-10-06T08:04:07.497Z,3.90
2018-10-06T08:06:36.798Z,4.10
2018-10-06T08:09:07.746Z,4.03
2018-10-06T08:11:36.936Z,3.33
2018-10-06T08:14:05.845Z,4.13
2018-10-06T08:16:34.899Z,2.97
2018-10-06T08:19:03.789Z,3.43
2018-10-06T08:21:32.673Z,3.10
2018-10-06T08:24:01.840Z,2.40
2018-10-06T08:26:31.221Z,2.80
2018-10-06T08:29:00.421Z,2.90
2018-10-06T08:31:29.784Z,3.10
2018-10-06T08:33:59.050Z,2.97
2018-10-06T08:36:28.680Z,3.00
2018-10-06T08:38:57.965Z,2.83
2018-10-06T08:41:27.222Z,2.70
2018-10-06T08:43:56.337Z,2.43
2018-10-06T08:46:25.618Z,2.57
2018-10-06T08:48:54.837Z,2.90
2018-10-06T08:51:24.186Z,2.47
2018-10-06T08:53:53.620Z,2.47
2018-10-06T08:56:23.083Z,3.00
2018-10-06T08:58:52.487Z,3.00
2018-10-06T09:01:22.181Z,3.10
2018-10-06T09:03:51.442Z,2.73
2018-10-06T09:06:20.650Z,2.73
2018-10-06T09:08:49.982Z,2.67
2018-10-06T09:11:19.442Z,2.57
2018-10-06T09:13:48.583Z,3.07
2018-10-06T09:16:17.769Z,3.07
2018-10-06T09:18:47.141Z,2.80
2018-10-06T09:21:16.217Z,3.20
2018-10-06T09:23:45.571Z,2.90
2018-10-06T09:26:14.809Z,3.40
2018-10-06T09:28:44.015Z,3.20
2018-10-06T09:31:13.481Z,2.60
2018-10-06T09:33:42.725Z,3.23
2018-10-06T09:36:12.031Z,3.00
2018-10-06T09:38:41.165Z,2.27
2018-10-06T09:41:11.333Z,2.40
2018-10-06T09:43:40.611Z,2.00
2018-10-06T09:46:10.010Z,3.83
2018-10-06T09:48:39.102Z,2.20
2018-10-06T09:51:08.308Z,2.20
2018-10-06T09:53:37.644Z,1.87
2018-10-06T09:56:07.005Z,2.73
2018-10-06T09:58:36.133Z,2.30
2018-10-06T10:01:10.873Z,2.10
2018-10-06T10:03:45.224Z,5.30
2018-10-06T10:06:14.846Z,2.10
2018-10-06T10:08:44.051Z,1.80
2018-10-06T10:11:13.153Z,2.87
2018-10-06T10:13:42.393Z,2.33
2018-10-06T10:16:11.543Z,2.20
2018-10-06T10:18:40.654Z,4.40
2018-10-06T10:21:09.777Z,2.53
2018-10-06T10:23:39.138Z,2.37
2018-10-06T10:26:08.622Z,2.60
2018-10-06T10:28:38.015Z,1.83
2018-10-06T10:31:07.447Z,2.33
2018-10-06T10:33:37.743Z,1.80
2018-10-06T10:36:07.193Z,3.27
2018-10-06T10:38:36.467Z,2.00
2018-10-06T10:41:05.811Z,1.80
2018-10-06T10:43:35.165Z,2.83
2018-10-06T10:46:04.381Z,3.73
2018-10-06T10:48:33.766Z,2.00
2018-10-06T10:51:02.966Z,2.00
2018-10-06T10:53:32.170Z,3.93
2018-10-06T10:56:01.305Z,2.40
2018-10-06T10:58:30.373Z,1.67
2018-10-06T11:00:59.540Z,2.00
2018-10-06T11:03:29.266Z,1.87
2018-10-06T11:05:58.481Z,1.83
2018-10-06T11:08:27.674Z,3.07
2018-10-06T11:10:58.126Z,2.33
2018-10-06T11:13:27.289Z,4.33
2018-10-06T11:15:56.481Z,2.20
2018-10-06T11:18:25.737Z,3.80
2018-10-06T11:20:54.874Z,2.70
2018-10-06T11:23:23.970Z,2.03
2018-10-06T11:25:53.142Z,2.93
2018-10-06T11:28:22.377Z,2.00
2018-10-06T11:30:51.550Z,3.73
2018-10-06T11:33:20.722Z,2.23
2018-10-06T11:35:54.751Z,1.80
2018-10-06T11:38:35.271Z,2.13
2018-10-06T11:41:04.418Z,2.40
2018-10-06T11:43:33.693Z,2.30
2018-10-06T11:46:04.200Z,6.43
2018-10-06T11:48:33.238Z,1.93
2018-10-06T11:51:02.541Z,1.90
2018-10-06T11:53:31.900Z,1.93
2018-10-06T11:56:01.021Z,2.00
2018-10-06T11:58:30.117Z,1.83
2018-10-06T12:00:59.257Z,2.10
2018-10-06T12:03:28.398Z,1.70
2018-10-06T12:05:57.498Z,1.60
2018-10-06T12:08:26.671Z,1.70
2018-10-06T12:10:55.822Z,2.23
2018-10-06T12:13:24.966Z,1.70
2018-10-06T12:15:54.281Z,2.00
2018-10-06T12:18:23.681Z,1.60
2018-10-06T12:20:52.891Z,2.23
2018-10-06T12:23:22.480Z,1.90
2018-10-06T12:25:51.692Z,2.37
2018-10-06T12:28:21.286Z,2.43
2018-10-06T12:30:50.638Z,3.03
2018-10-06T12:33:19.798Z,3.43
2018-10-06T12:35:49.007Z,3.30
2018-10-06T12:38:18.790Z,1.80
2018-10-06T12:40:48.087Z,3.57
2018-10-06T12:43:17.391Z,1.90
2018-10-06T12:45:46.834Z,1.67
2018-10-06T12:48:16.138Z,1.77
2018-10-06T12:50:45.413Z,3.53
2018-10-06T12:53:14.542Z,2.17
2018-10-06T12:55:43.710Z,2.10
2018-10-06T12:58:13.101Z,2.53
2018-10-06T13:00:42.542Z,1.93
2018-10-06T13:03:11.709Z,1.90
2018-10-06T13:05:40.900Z,2.40
2018-10-06T13:08:10.313Z,2.20
2018-10-06T13:10:39.419Z,2.10
2018-10-06T13:13:08.501Z,6.27
2018-10-06T13:15:37.729Z,1.80
2018-10-06T13:18:06.977Z,12.70
2018-10-06T13:20:36.075Z,2.67
2018-10-06T13:23:05.329Z,2.60
2018-10-06T13:25:34.593Z,2.30
2018-10-06T13:28:03.776Z,2.60
2018-10-06T13:30:33.251Z,2.47
2018-10-06T13:33:02.413Z,2.73
2018-10-06T13:35:31.613Z,2.13
2018-10-06T13:38:01.182Z,2.70
2018-10-06T13:40:30.818Z,2.00
2018-10-06T13:42:59.795Z,2.10
2018-10-06T13:45:29.046Z,2.90
2018-10-06T13:47:58.182Z,2.80
2018-10-06T13:50:27.488Z,4.17
2018-10-06T13:52:56.826Z,2.30
2018-10-06T13:55:26.070Z,1.80
2018-10-06T13:57:55.413Z,2.03
2018-10-06T14:00:24.934Z,1.83
2018-10-06T14:02:54.381Z,1.90
2018-10-06T14:05:23.582Z,2.43
2018-10-06T14:07:53.109Z,4.30
2018-10-06T14:10:22.195Z,1.87
2018-10-06T14:12:51.389Z,1.90
2018-10-06T14:15:21.613Z,2.37
2018-10-06T14:17:50.790Z,3.80
2018-10-06T14:20:20.209Z,4.67
2018-10-06T14:22:49.575Z,3.07
2018-10-06T14:25:18.705Z,3.47
2018-10-06T14:27:47.727Z,2.73
2018-10-06T14:30:17.065Z,3.40
2018-10-06T14:32:46.380Z,3.20
2018-10-06T14:35:15.889Z,3.53
2018-10-06T14:37:45.515Z,2.50
2018-10-06T14:40:14.732Z,2.47
2018-10-06T14:42:43.909Z,3.60
2018-10-06T14:45:13.461Z,1.97
2018-10-06T14:47:42.791Z,2.73
2018-10-06T14:50:12.053Z,2.07
2018-10-06T14:52:41.664Z,2.23
2018-10-06T14:55:10.832Z,2.70
2018-10-06T14:57:40.186Z,2.40
2018-10-06T15:00:09.954Z,2.50
2018-10-06T15:02:39.130Z,2.20
2018-10-06T15:05:08.658Z,5.57
2018-10-06T15:07:38.174Z,5.87
2018-10-06T15:10:07.513Z,2.97
2018-10-06T15:12:36.858Z,3.00
2018-10-06T15:15:06.693Z,3.00
2018-10-06T15:17:36.061Z,4.27
2018-10-06T15:20:05.451Z,4.70
2018-10-06T15:22:34.773Z,3.73
2018-10-06T15:25:04.085Z,3.63
2018-10-06T15:27:33.250Z,3.87
2018-10-06T15:30:02.558Z,4.93
2018-10-06T15:32:31.783Z,6.20
2018-10-06T15:35:00.866Z,3.77
2018-10-06T15:37:30.130Z,5.23
2018-10-06T15:39:59.372Z,3.73
2018-10-06T15:42:28.673Z,4.27
2018-10-06T15:44:57.909Z,4.03
2018-10-06T15:47:27.345Z,3.80
2018-10-06T15:49:56.641Z,4.23
2018-10-06T15:52:25.965Z,4.33
2018-10-06T15:54:55.253Z,7.13
2018-10-06T15:57:24.361Z,6.27
2018-10-06T15:59:53.974Z,7.90
2018-10-06T16:02:23.142Z,7.03
2018-10-06T16:04:52.289Z,6.50
2018-10-06T16:07:21.861Z,7.17
2018-10-06T16:09:51.231Z,6.77
2018-10-06T16:12:20.581Z,7.70
2018-10-06T16:14:49.957Z,8.17
2018-10-06T16:17:19.051Z,8.27
2018-10-06T16:19:48.181Z,7.33
2018-10-06T16:22:17.493Z,8.83
2018-10-06T16:24:46.841Z,7.03
2018-10-06T16:27:16.191Z,6.83
2018-10-06T16:29:45.714Z,6.63
2018-10-06T16:32:14.876Z,6.07
2018-10-06T16:34:44.072Z,6.77
2018-10-06T16:37:13.306Z,5.80
2018-10-06T16:39:42.534Z,6.13
2018-10-06T16:42:11.654Z,6.33
2018-10-06T16:44:41.269Z,8.13
2018-10-06T16:47:10.782Z,9.20
2018-10-06T16:49:40.023Z,10.17
2018-10-06T16:52:09.570Z,11.27
2018-10-06T16:54:38.741Z,10.20
2018-10-06T16:57:07.985Z,11.10
2018-10-06T16:59:37.527Z,13.70
2018-10-06T17:02:07.221Z,15.13
2018-10-06T17:04:36.378Z,12.93
2018-10-06T17:07:05.901Z,13.77
2018-10-06T17:09:35.400Z,13.47
2018-10-06T17:12:04.569Z,11.30
2018-10-06T17:14:33.806Z,8.53
2018-10-06T17:17:03.110Z,7.70
2018-10-06T17:19:32.381Z,6.03
2018-10-06T17:22:01.730Z,4.90
2018-10-06T17:24:31.302Z,4.17
2018-10-06T17:27:00.287Z,3.87
2018-10-06T17:29:29.543Z,3.70
2018-10-06T17:31:58.801Z,4.00
2018-10-06T17:34:27.994Z,2.77
2018-10-06T17:36:57.689Z,2.90
2018-10-06T17:39:26.883Z,2.27
2018-10-06T17:41:56.137Z,2.37
2018-10-06T17:44:25.702Z,2.87
2018-10-06T17:46:55.173Z,3.57
2018-10-06T17:49:24.265Z,4.97
2018-10-06T17:51:53.662Z,7.93
2018-10-06T17:54:22.807Z,9.10
2018-10-06T17:56:52.053Z,6.90
2018-10-06T17:59:21.486Z,5.03
2018-10-06T18:01:50.675Z,3.63
2018-10-06T18:04:19.843Z,3.73
2018-10-06T18:06:49.293Z,3.70
2018-10-06T18:09:18.585Z,4.13
2018-10-06T18:11:47.741Z,5.40
2018-10-06T18:14:17.241Z,6.77
2018-10-06T18:16:46.380Z,8.33
2018-10-06T18:19:15.841Z,7.90
2018-10-06T18:21:45.415Z,9.13
2018-10-06T18:24:14.581Z,8.47
2018-10-06T18:26:43.822Z,8.73
2018-10-06T18:29:13.481Z,7.27
2018-10-06T18:31:42.888Z,7.37
2018-10-06T18:34:12.090Z,6.93
2018-10-06T18:36:42.148Z,5.10
2018-10-06T18:39:11.636Z,4.17
2018-10-06T18:41:40.979Z,3.20
2018-10-06T18:44:10.352Z,2.40
2018-10-06T18:46:39.590Z,3.60
2018-10-06T18:49:08.705Z,3.33
2018-10-06T18:51:38.093Z,3.77
2018-10-06T18:54:07.236Z,3.30
2018-10-06T18:56:36.369Z,2.93
2018-10-06T18:59:05.765Z,3.47
2018-10-06T19:01:35.066Z,2.80
2018-10-06T19:04:04.405Z,3.70
2018-10-06T19:06:33.650Z,2.83
2018-10-06T19:09:02.895Z,3.00
2018-10-06T19:11:32.085Z,2.60
2018-10-06T19:14:01.434Z,3.20
2018-10-06T19:16:30.579Z,2.70
2018-10-06T19:18:59.578Z,2.83
2018-10-06T19:21:28.723Z,2.80
2018-10-06T19:23:57.965Z,2.67
2018-10-06T19:26:27.195Z,3.53
2018-10-06T19:28:56.665Z,4.43
2018-10-06T19:31:25.958Z,4.80
2018-10-06T19:33:55.283Z,5.10
2018-10-06T19:36:24.867Z,3.90
2018-10-06T19:38:54.073Z,3.73
2018-10-06T19:41:23.169Z,3.33
2018-10-06T19:43:52.682Z,3.83
2018-10-06T19:46:21.878Z,3.20
2018-10-06T19:48:51.081Z,3.90
2018-10-06T19:51:21.082Z,3.80
2018-10-06T19:53:50.298Z,3.20
2018-10-06T19:56:19.593Z,3.07
2018-10-06T19:58:48.745Z,2.70
2018-10-06T20:01:18.220Z,2.83
2018-10-06T20:03:47.402Z,2.47
2018-10-06T20:06:16.995Z,2.70
2018-10-06T20:08:46.104Z,2.60
2018-10-06T20:11:15.479Z,2.30
2018-10-06T20:13:44.994Z,2.50
2018-10-06T20:19:34.059Z,2.13
2018-10-06T20:23:19.147Z,2.10
2018-10-06T20:30:09.827Z,2.57
2018-10-06T20:32:39.218Z,2.33
2018-10-06T20:35:11.550Z,3.00
2018-10-06T20:37:42.865Z,2.20
2018-10-06T20:40:19.164Z,2.43
2018-10-06T20:42:50.326Z,2.33
2018-10-06T20:45:20.037Z,2.60
2018-10-06T20:47:49.337Z,2.17
2018-10-06T20:50:18.509Z,2.13
2018-10-06T20:52:47.569Z,2.67
2018-10-06T20:55:16.794Z,2.40
2018-10-06T20:57:46.022Z,3.93
2018-10-06T21:00:15.453Z,2.40
2018-10-06T21:02:44.689Z,2.23
2018-10-06T21:05:13.897Z,2.50
2018-10-06T21:07:43.181Z,2.60
2018-10-06T21:10:12.421Z,2.43
2018-10-06T21:12:41.531Z,2.70
2018-10-06T21:15:10.667Z,2.80
2018-10-06T21:17:39.718Z,2.87
2018-10-06T21:20:09.083Z,2.70
2018-10-06T21:22:38.663Z,2.70
2018-10-06T21:25:07.923Z,2.60
2018-10-06T21:27:37.002Z,2.70
2018-10-06T21:30:06.957Z,2.50
2018-10-06T21:32:36.202Z,3.10
2018-10-06T21:35:05.515Z,3.10
2018-10-06T21:37:35.171Z,3.20
2018-10-06T21:40:04.323Z,3.30
2018-10-06T21:42:33.409Z,3.57
2018-10-06T21:45:02.765Z,3.73
2018-10-06T21:47:31.895Z,3.20
2018-10-06T21:50:01.105Z,2.90
2018-10-06T21:52:30.620Z,3.20
2018-10-06T21:54:59.907Z,3.50
2018-10-06T21:57:29.113Z,3.63
2018-10-06T21:59:58.650Z,3.40
2018-10-06T22:02:27.806Z,3.77
2018-10-06T22:04:57.106Z,3.27
2018-10-06T22:07:26.429Z,3.53
2018-10-06T22:09:55.694Z,4.03
2018-10-06T22:12:24.885Z,3.80
2018-10-06T22:14:54.399Z,3.87
2018-10-06T22:17:23.512Z,3.57
2018-10-06T22:19:52.617Z,3.97
2018-10-06T22:22:21.945Z,4.03
2018-10-06T22:24:51.193Z,4.40
2018-10-06T22:27:20.499Z,4.20
2018-10-06T22:29:49.937Z,4.40
2018-10-06T22:32:19.515Z,3.83
2018-10-06T22:34:48.599Z,4.70
2018-10-06T22:37:18.001Z,5.37
2018-10-06T22:39:47.294Z,3.80
2018-10-06T22:42:16.617Z,4.47
2018-10-06T22:44:46.045Z,4.00
2018-10-06T22:47:15.121Z,4.90
2018-10-06T22:49:44.220Z,5.77
2018-10-06T22:52:13.537Z,12.00
2018-10-06T22:54:42.813Z,18.40
2018-10-06T22:57:12.087Z,32.57
2018-10-06T22:59:41.617Z,36.83
2018-10-06T23:02:10.794Z,45.53
2018-10-06T23:04:39.919Z,42.40
2018-10-06T23:07:09.057Z,33.90
2018-10-06T23:09:38.174Z,30.53
2018-10-06T23:12:07.285Z,27.90
2018-10-06T23:14:36.656Z,17.67
2018-10-06T23:17:06.099Z,13.90
2018-10-06T23:19:35.273Z,7.80
2018-10-06T23:22:04.633Z,5.50
2018-10-06T23:24:33.901Z,5.23
2018-10-06T23:27:03.119Z,6.23
2018-10-06T23:29:32.583Z,7.07
2018-10-06T23:32:01.716Z,7.67
2018-10-06T23:34:30.685Z,7.73
2018-10-06T23:37:00.001Z,5.83
2018-10-06T23:39:29.275Z,6.07
2018-10-06T23:41:58.579Z,5.80
2018-10-06T23:44:27.907Z,5.73
2018-10-06T23:46:57.216Z,5.43
2018-10-06T23:49:26.397Z,4.87
2018-10-06T23:51:55.537Z,4.43
2018-10-06T23:54:24.676Z,4.10
2018-10-06T23:56:53.750Z,4.10
2018-10-06T23:59:23.254Z,3.77
